Time;durP1;ratioP1;P1;durP2;ratioP2;P2;SDS_P1;SDS_P2;PMS_P1;PMS_P2;Temp;Humidity;BMP_temperature;BMP_pressure;BME280_temperature;BME280_humidity;BME280_pressure;Samples;Min_cycle;Max_cycle;Signal;HPM_P1;HPM_P2
2021/12/22 00:02:34;;;;;;;24.63;14.85;;;;;;;;;;5041508;28;20041;-62
2021/12/22 00:05:22;;;;;;;22.73;14.07;;;;;;;;;;5039476;28;20028;-63
2021/12/22 00:08:07;;;;;;;23.63;14.30;;;;;;;;;;5047573;28;20072;-62
2021/12/22 00:10:53;;;;;;;22.50;15.43;;;;;;;;;;5048029;28;20025;-65
2021/12/22 00:13:38;;;;;;;22.17;14.10;;;;;;;;;;5043504;28;20060;-67
2021/12/22 00:16:23;;;;;;;25.98;13.73;;;;;;;;;;5044587;28;20024;-66
2021/12/22 00:19:08;;;;;;;23.88;14.73;;;;;;;;;;5032891;28;20037;-66
2021/12/22 00:21:54;;;;;;;26.83;15.00;;;;;;;;;;5038469;28;20064;-66
2021/12/22 00:24:40;;;;;;;22.13;13.25;;;;;;;;;;5040903;28;20032;-66
2021/12/22 00:27:25;;;;;;;25.60;15.52;;;;;;;;;;5038634;28;20602;-65
2021/12/22 00:30:11;;;;;;;25.52;13.82;;;;;;;;;;5036770;28;20120;-62
2021/12/22 00:33:03;;;;;;;22.45;13.38;;;;;;;;;;5034338;28;20045;-66
2021/12/22 00:35:49;;;;;;;20.05;12.85;;;;;;;;;;5032541;28;20044;-67
2021/12/22 00:38:34;;;;;;;27.00;14.35;;;;;;;;;;5034594;28;20043;-65
2021/12/22 00:41:19;;;;;;;19.80;12.70;;;;;;;;;;5031949;28;20032;-65
2021/12/22 00:44:05;;;;;;;19.70;12.25;;;;;;;;;;5035192;28;20301;-66
2021/12/22 00:46:50;;;;;;;25.50;14.60;;;;;;;;;;5039866;28;20047;-66
2021/12/22 00:49:35;;;;;;;25.30;14.43;;;;;;;;;;5019692;28;20041;-63
2021/12/22 00:52:21;;;;;;;21.45;13.63;;;;;;;;;;5034348;28;20098;-63
2021/12/22 00:55:07;;;;;;;21.40;11.57;;;;;;;;;;5028206;28;20029;-64
2021/12/22 00:57:52;;;;;;;24.25;13.85;;;;;;;;;;5032057;28;20025;-66
2021/12/22 01:00:37;;;;;;;21.38;13.90;;;;;;;;;;5029314;28;20219;-65
2021/12/22 01:03:22;;;;;;;26.02;14.63;;;;;;;;;;5035634;28;20044;-66
2021/12/22 01:06:08;;;;;;;21.52;12.60;;;;;;;;;;5047205;28;20033;-66
2021/12/22 01:08:53;;;;;;;22.80;12.75;;;;;;;;;;5034525;28;20098;-63
2021/12/22 01:11:38;;;;;;;22.42;13.38;;;;;;;;;;5056786;28;20025;-64
2021/12/22 01:14:24;;;;;;;19.88;12.02;;;;;;;;;;5045449;28;20069;-64
2021/12/22 01:17:12;;;;;;;18.95;11.65;;;;;;;;;;5037604;28;20033;-64
2021/12/22 01:20:03;;;;;;;19.70;10.77;;;;;;;;;;5021781;28;20021;-64
2021/12/22 01:22:49;;;;;;;19.42;13.43;;;;;;;;;;5032937;28;20033;-63
2021/12/22 01:25:41;;;;;;;18.05;11.32;;;;;;;;;;5036885;28;20029;-65
2021/12/22 01:28:27;;;;;;;19.10;11.45;;;;;;;;;;5032428;28;20076;-64
2021/12/22 01:31:16;;;;;;;19.63;12.63;;;;;;;;;;5033552;28;20427;-64
2021/12/22 01:34:01;;;;;;;20.33;12.98;;;;;;;;;;5034022;28;20040;-63
2021/12/22 01:36:46;;;;;;;23.27;12.52;;;;;;;;;;5019531;28;20071;-64
2021/12/22 01:39:31;;;;;;;22.33;12.30;;;;;;;;;;5031245;28;20095;-64
2021/12/22 01:42:17;;;;;;;17.83;10.88;;;;;;;;;;5032387;28;20179;-64
2021/12/22 01:50:56;;;;;;;21.63;12.75;;;;;;;;;;5039645;28;20091;-66
2021/12/22 01:53:44;;;;;;;18.63;12.18;;;;;;;;;;5019367;28;20033;-65
2021/12/22 01:56:32;;;;;;;17.80;11.27;;;;;;;;;;5034049;28;20094;-65
2021/12/22 01:59:20;;;;;;;18.05;11.77;;;;;;;;;;5032592;28;20040;-65
2021/12/22 02:02:06;;;;;;;20.73;12.02;;;;;;;;;;5046915;28;20112;-65
2021/12/22 02:04:51;;;;;;;20.00;11.57;;;;;;;;;;5028769;28;20022;-64
2021/12/22 02:07:36;;;;;;;23.58;13.35;;;;;;;;;;5014253;28;20029;-64
2021/12/22 02:10:46;;;;;;;21.95;13.27;;;;;;;;;;5021319;28;20405;-62
2021/12/22 02:13:35;;;;;;;20.55;11.82;;;;;;;;;;5040381;28;20029;-63
2021/12/22 02:16:26;;;;;;;18.85;11.45;;;;;;;;;;5037621;28;20037;-63
2021/12/22 02:19:12;;;;;;;17.92;11.35;;;;;;;;;;5035709;28;20016;-64
2021/12/22 02:21:58;;;;;;;22.52;13.52;;;;;;;;;;5037315;28;20051;-66
2021/12/22 02:24:49;;;;;;;21.13;12.30;;;;;;;;;;5035902;28;20067;-67
2021/12/22 02:27:41;;;;;;;17.48;13.00;;;;;;;;;;5031239;28;20041;-66
2021/12/22 02:30:28;;;;;;;21.95;12.90;;;;;;;;;;5044446;28;20095;-67
2021/12/22 02:33:36;;;;;;;23.45;13.60;;;;;;;;;;5037340;28;20029;-66
2021/12/22 02:36:23;;;;;;;25.30;12.98;;;;;;;;;;5019799;28;20577;-67
2021/12/22 02:39:08;;;;;;;22.55;12.80;;;;;;;;;;5050044;28;20029;-67
2021/12/22 02:41:54;;;;;;;25.83;13.70;;;;;;;;;;5041713;28;20060;-67
2021/12/22 02:44:39;;;;;;;20.58;12.48;;;;;;;;;;5035537;28;20421;-66
2021/12/22 02:47:26;;;;;;;20.45;12.38;;;;;;;;;;5045084;28;20040;-66
2021/12/22 02:50:13;;;;;;;25.70;14.88;;;;;;;;;;5051575;28;20051;-67
2021/12/22 02:53:06;;;;;;;22.58;13.38;;;;;;;;;;5054350;28;20219;-67
2021/12/22 02:56:11;;;;;;;24.60;13.25;;;;;;;;;;5037652;28;20223;-65
2021/12/22 03:02:47;;;;;;;23.52;13.10;;;;;;;;;;5035793;28;20037;-65
2021/12/22 03:05:09;;;;;;;20.65;12.55;;;;;;;;;;5027618;28;20025;-65
2021/12/22 03:07:54;;;;;;;24.00;13.80;;;;;;;;;;5044837;28;20435;-65
2021/12/22 03:10:40;;;;;;;22.80;13.55;;;;;;;;;;5038498;28;20038;-67
2021/12/22 03:13:25;;;;;;;20.35;12.88;;;;;;;;;;5035870;28;20093;-66
2021/12/22 03:16:10;;;;;;;23.15;14.32;;;;;;;;;;5035184;28;20021;-68
2021/12/22 03:18:56;;;;;;;26.02;15.15;;;;;;;;;;5036238;28;20024;-64
2021/12/22 03:21:43;;;;;;;25.13;14.43;;;;;;;;;;5048618;28;20523;-62
2021/12/22 03:24:29;;;;;;;21.90;13.00;;;;;;;;;;5051293;28;20036;-65
2021/12/22 03:27:14;;;;;;;21.20;13.15;;;;;;;;;;5047717;28;20391;-65
2021/12/22 03:29:59;;;;;;;17.80;12.32;;;;;;;;;;5050518;28;20045;-63
2021/12/22 03:32:45;;;;;;;24.27;14.27;;;;;;;;;;5034636;28;20040;-63
2021/12/22 03:35:34;;;;;;;20.88;13.00;;;;;;;;;;5035235;28;20114;-66
2021/12/22 03:38:19;;;;;;;21.15;13.85;;;;;;;;;;5021072;28;20025;-64
2021/12/22 03:41:06;;;;;;;21.20;12.57;;;;;;;;;;5035737;28;20041;-64
2021/12/22 03:43:51;;;;;;;20.33;12.10;;;;;;;;;;5021323;28;20021;-65
2021/12/22 03:46:37;;;;;;;22.00;13.25;;;;;;;;;;5021069;28;20032;-64
2021/12/22 03:49:22;;;;;;;22.77;13.57;;;;;;;;;;5034878;28;20043;-64
2021/12/22 03:52:08;;;;;;;24.58;14.13;;;;;;;;;;5034121;28;20029;-65
2021/12/22 03:54:58;;;;;;;20.23;11.90;;;;;;;;;;5035903;28;20379;-65
2021/12/22 03:57:43;;;;;;;23.58;15.45;;;;;;;;;;5041149;28;20025;-66
2021/12/22 04:00:30;;;;;;;21.38;13.60;;;;;;;;;;5035003;28;20121;-66
2021/12/22 04:03:18;;;;;;;21.60;12.13;;;;;;;;;;5048010;28;20067;-67
2021/12/22 04:06:04;;;;;;;24.45;14.07;;;;;;;;;;5032819;28;20033;-67
2021/12/22 04:08:49;;;;;;;21.30;12.70;;;;;;;;;;5051460;28;20053;-67
2021/12/22 04:11:34;;;;;;;17.58;11.13;;;;;;;;;;5046587;28;20520;-67
2021/12/22 04:14:19;;;;;;;21.65;12.38;;;;;;;;;;5038538;28;20021;-63
2021/12/22 04:17:05;;;;;;;23.00;14.00;;;;;;;;;;5026210;28;20499;-62
2021/12/22 04:19:50;;;;;;;23.73;14.25;;;;;;;;;;5033980;28;20040;-62
2021/12/22 04:22:35;;;;;;;20.50;12.52;;;;;;;;;;5035330;28;20068;-62
2021/12/22 04:25:21;;;;;;;20.58;12.65;;;;;;;;;;5031577;28;20033;-63
2021/12/22 04:28:09;;;;;;;23.75;13.43;;;;;;;;;;5048717;28;20069;-66
2021/12/22 04:30:54;;;;;;;22.95;12.85;;;;;;;;;;5041423;28;20430;-66
2021/12/22 04:33:39;;;;;;;20.63;13.00;;;;;;;;;;5033950;28;20058;-68
2021/12/22 04:36:25;;;;;;;18.95;11.73;;;;;;;;;;5034131;28;20411;-68
2021/12/22 04:39:10;;;;;;;19.83;12.45;;;;;;;;;;5029663;28;20029;-67
2021/12/22 04:41:55;;;;;;;22.58;13.73;;;;;;;;;;5044281;28;20065;-68
2021/12/22 04:44:41;;;;;;;23.55;13.38;;;;;;;;;;5033300;28;20037;-69
2021/12/22 04:47:26;;;;;;;23.10;13.27;;;;;;;;;;5048133;28;20511;-62
2021/12/22 04:50:17;;;;;;;23.95;13.68;;;;;;;;;;5033262;28;20112;-62
2021/12/22 04:53:10;;;;;;;21.75;13.13;;;;;;;;;;5048441;28;20120;-63
2021/12/22 04:55:55;;;;;;;19.55;12.30;;;;;;;;;;5032719;28;20396;-62
2021/12/22 04:58:40;;;;;;;21.73;12.82;;;;;;;;;;5034457;28;20025;-62
2021/12/22 05:01:26;;;;;;;21.35;12.65;;;;;;;;;;5034810;28;20024;-62
2021/12/22 05:04:11;;;;;;;24.30;14.10;;;;;;;;;;5029670;28;20025;-61
2021/12/22 05:06:56;;;;;;;23.50;12.27;;;;;;;;;;5031139;28;20534;-66
2021/12/22 05:09:41;;;;;;;25.63;14.35;;;;;;;;;;5021590;28;20037;-71
2021/12/22 05:12:27;;;;;;;20.77;14.23;;;;;;;;;;5033306;28;20743;-69
2021/12/22 05:15:12;;;;;;;22.05;13.77;;;;;;;;;;5046004;28;20037;-68
2021/12/22 05:20:43;;;;;;;22.38;14.02;;;;;;;;;;5033155;28;20044;-71
2021/12/22 05:23:28;;;;;;;22.90;13.60;;;;;;;;;;5020945;28;20025;-63
2021/12/22 05:26:13;;;;;;;26.73;14.63;;;;;;;;;;5037758;28;20503;-61
2021/12/22 05:28:59;;;;;;;23.80;14.65;;;;;;;;;;5034071;28;20040;-64
2021/12/22 05:31:44;;;;;;;23.10;15.27;;;;;;;;;;5033064;28;20025;-66
2021/12/22 05:34:30;;;;;;;23.70;13.25;;;;;;;;;;5042341;28;20043;-64
2021/12/22 05:37:15;;;;;;;23.20;14.23;;;;;;;;;;5052821;28;20037;-65
2021/12/22 05:40:00;;;;;;;25.63;14.07;;;;;;;;;;5030781;28;20060;-65
2021/12/22 05:42:46;;;;;;;25.75;14.43;;;;;;;;;;5046587;28;20494;-63
2021/12/22 05:45:31;;;;;;;26.13;15.38;;;;;;;;;;5033819;28;20033;-62
2021/12/22 05:48:16;;;;;;;24.92;15.43;;;;;;;;;;5046690;28;20504;-64
2021/12/22 05:51:02;;;;;;;24.55;15.88;;;;;;;;;;5037598;28;20032;-63
2021/12/22 05:53:47;;;;;;;26.52;15.10;;;;;;;;;;5036843;28;20123;-62
2021/12/22 05:56:33;;;;;;;24.75;14.40;;;;;;;;;;5051583;28;20553;-63
2021/12/22 05:59:18;;;;;;;26.70;14.52;;;;;;;;;;5034074;28;20029;-62
2021/12/22 06:02:03;;;;;;;26.52;15.48;;;;;;;;;;5033717;28;20723;-63
2021/12/22 06:04:48;;;;;;;25.25;14.77;;;;;;;;;;5020851;28;20029;-64
2021/12/22 06:07:34;;;;;;;24.48;14.48;;;;;;;;;;5036651;28;20100;-65
2021/12/22 06:10:19;;;;;;;25.95;13.55;;;;;;;;;;5045419;28;20026;-66
2021/12/22 06:13:05;;;;;;;25.25;15.43;;;;;;;;;;5034317;28;20033;-64
2021/12/22 06:15:50;;;;;;;22.27;14.73;;;;;;;;;;5061414;28;20625;-63
2021/12/22 06:18:41;;;;;;;23.45;14.25;;;;;;;;;;5036041;28;20175;-64
2021/12/22 06:21:27;;;;;;;25.45;15.90;;;;;;;;;;5037495;28;20029;-67
2021/12/22 06:24:12;;;;;;;23.83;14.07;;;;;;;;;;5043201;28;20443;-61
2021/12/22 06:26:57;;;;;;;26.98;13.88;;;;;;;;;;5044004;28;20115;-62
2021/12/22 06:29:43;;;;;;;22.83;15.27;;;;;;;;;;5035493;28;20116;-63
2021/12/22 06:32:28;;;;;;;26.65;14.68;;;;;;;;;;5036004;28;20480;-63
2021/12/22 06:35:13;;;;;;;20.67;12.80;;;;;;;;;;5049348;28;20064;-62
2021/12/22 06:37:59;;;;;;;26.38;14.20;;;;;;;;;;5045029;28;20075;-63
2021/12/22 06:40:44;;;;;;;24.77;15.55;;;;;;;;;;5035957;28;20056;-64
2021/12/22 06:43:29;;;;;;;25.23;14.77;;;;;;;;;;5036816;28;20633;-64
2021/12/22 06:46:14;;;;;;;25.10;14.77;;;;;;;;;;5028283;28;20393;-63
2021/12/22 06:49:00;;;;;;;25.10;14.02;;;;;;;;;;5034197;28;20060;-64
2021/12/22 06:51:45;;;;;;;23.77;14.18;;;;;;;;;;5044178;28;20492;-65
2021/12/22 06:54:30;;;;;;;25.20;14.73;;;;;;;;;;5027017;28;20116;-63
2021/12/22 06:57:19;;;;;;;31.23;15.80;;;;;;;;;;5049912;28;20306;-62
2021/12/22 07:00:05;;;;;;;26.52;15.52;;;;;;;;;;5030714;28;20124;-68
2021/12/22 07:02:52;;;;;;;24.70;13.70;;;;;;;;;;5035342;28;20043;-67
2021/12/22 07:05:37;;;;;;;27.40;15.70;;;;;;;;;;5029608;28;20072;-70
2021/12/22 07:08:22;;;;;;;24.52;14.60;;;;;;;;;;5036759;28;20036;-70
2021/12/22 07:11:08;;;;;;;29.05;15.50;;;;;;;;;;5041407;28;20044;-67
2021/12/22 07:13:53;;;;;;;25.05;14.70;;;;;;;;;;5036557;28;20021;-63
2021/12/22 07:16:39;;;;;;;28.35;15.75;;;;;;;;;;5048721;28;20032;-65
2021/12/22 07:19:24;;;;;;;28.17;17.55;;;;;;;;;;5035594;28;20025;-63
2021/12/22 07:22:09;;;;;;;30.08;16.63;;;;;;;;;;5034860;28;20063;-65
2021/12/22 07:24:55;;;;;;;30.40;17.27;;;;;;;;;;5036718;28;20058;-63
2021/12/22 07:27:40;;;;;;;28.25;16.38;;;;;;;;;;5035496;28;20028;-64
2021/12/22 07:30:26;;;;;;;30.65;17.60;;;;;;;;;;5048788;28;20037;-63
2021/12/22 07:33:11;;;;;;;33.42;17.85;;;;;;;;;;5036224;28;20033;-66
2021/12/22 07:35:58;;;;;;;31.35;17.83;;;;;;;;;;5038838;28;20077;-65
2021/12/22 07:38:51;;;;;;;32.72;18.50;;;;;;;;;;5049467;28;20274;-61
2021/12/22 07:41:36;;;;;;;30.05;17.85;;;;;;;;;;5038179;28;20529;-65
2021/12/22 07:44:21;;;;;;;31.15;17.17;;;;;;;;;;5049616;28;20021;-65
2021/12/22 07:47:06;;;;;;;35.83;19.63;;;;;;;;;;5033177;28;20429;-63
2021/12/22 07:49:52;;;;;;;30.00;16.77;;;;;;;;;;5031629;28;20120;-64
2021/12/22 07:52:37;;;;;;;32.08;17.65;;;;;;;;;;5009989;28;20527;-62
2021/12/22 07:55:22;;;;;;;29.10;18.10;;;;;;;;;;5030444;28;20083;-65
2021/12/22 07:58:08;;;;;;;29.38;17.92;;;;;;;;;;5000910;28;20037;-66
2021/12/22 08:00:54;;;;;;;29.00;18.25;;;;;;;;;;5032960;28;20026;-64
2021/12/22 08:03:39;;;;;;;78.00;46.80;;;;;;;;;;5030202;28;20369;-65
2021/12/22 08:06:25;;;;;;;28.92;17.70;;;;;;;;;;5018271;28;20021;-64
2021/12/22 08:09:10;;;;;;;30.20;18.58;;;;;;;;;;5016690;28;20037;-64
2021/12/22 08:11:56;;;;;;;27.52;16.70;;;;;;;;;;5018593;28;20563;-62
2021/12/22 08:14:42;;;;;;;26.20;15.85;;;;;;;;;;5038985;28;20159;-63
2021/12/22 08:17:27;;;;;;;35.28;18.17;;;;;;;;;;5019404;28;20029;-63
2021/12/22 08:20:13;;;;;;;25.83;16.25;;;;;;;;;;5002734;28;20028;-63
2021/12/22 08:22:58;;;;;;;33.63;17.38;;;;;;;;;;5021800;28;20025;-65
2021/12/22 08:25:43;;;;;;;28.40;17.55;;;;;;;;;;5035896;28;20028;-64
2021/12/22 08:28:28;;;;;;;27.63;17.58;;;;;;;;;;5028794;28;20037;-68
2021/12/22 08:31:14;;;;;;;33.15;18.90;;;;;;;;;;5033836;28;20543;-62
2021/12/22 08:33:59;;;;;;;27.25;17.52;;;;;;;;;;5030525;28;20059;-66
2021/12/22 08:39:48;;;;;;;30.50;17.80;;;;;;;;;;5031764;28;20060;-65
2021/12/22 08:42:34;;;;;;;28.95;16.67;;;;;;;;;;5047874;28;20177;-65
2021/12/22 08:45:19;;;;;;;31.70;18.92;;;;;;;;;;5031768;28;20112;-63
2021/12/22 08:48:05;;;;;;;31.90;17.80;;;;;;;;;;5048199;28;20058;-68
2021/12/22 08:50:50;;;;;;;34.40;19.08;;;;;;;;;;5040149;28;20335;-62
2021/12/22 08:53:36;;;;;;;36.15;20.02;;;;;;;;;;5033780;28;20090;-64
2021/12/22 08:56:22;;;;;;;35.72;20.50;;;;;;;;;;5025414;28;20099;-67
2021/12/22 08:59:08;;;;;;;32.35;20.23;;;;;;;;;;5051854;28;20025;-63
2021/12/22 09:01:53;;;;;;;34.03;20.08;;;;;;;;;;5048310;28;20067;-64
2021/12/22 09:04:39;;;;;;;35.53;20.10;;;;;;;;;;5032287;28;20029;-65
2021/12/22 09:07:24;;;;;;;36.58;22.98;;;;;;;;;;5032299;28;20115;-62
2021/12/22 09:10:09;;;;;;;37.65;21.63;;;;;;;;;;5038339;28;20447;-63
2021/12/22 09:12:55;;;;;;;36.53;21.63;;;;;;;;;;5020354;28;20449;-64
2021/12/22 09:15:40;;;;;;;36.67;20.70;;;;;;;;;;5030404;28;20111;-63
2021/12/22 09:18:26;;;;;;;31.08;20.20;;;;;;;;;;5033520;28;20032;-63
2021/12/22 09:21:11;;;;;;;35.08;20.67;;;;;;;;;;5048331;28;20086;-64
2021/12/22 09:23:56;;;;;;;28.00;18.65;;;;;;;;;;5053853;28;20021;-64
2021/12/22 09:26:42;;;;;;;33.92;19.77;;;;;;;;;;5036718;28;20024;-67
2021/12/22 09:29:29;;;;;;;28.48;19.25;;;;;;;;;;5035789;28;20041;-68
2021/12/22 09:32:16;;;;;;;32.40;21.63;;;;;;;;;;5017256;28;20020;-66
2021/12/22 09:35:01;;;;;;;33.70;21.00;;;;;;;;;;5037882;28;20056;-67
2021/12/22 09:37:46;;;;;;;39.40;21.08;;;;;;;;;;5037820;28;20567;-67
2021/12/22 09:40:31;;;;;;;39.22;20.77;;;;;;;;;;5037367;28;20032;-67
2021/12/22 09:43:17;;;;;;;35.60;22.33;;;;;;;;;;5037543;28;20391;-69
2021/12/22 09:46:06;;;;;;;29.88;19.90;;;;;;;;;;5034503;28;20045;-67
2021/12/22 09:48:59;;;;;;;;;;;;;;;;;;5036181;28;20048;-64
2021/12/22 09:54:52;;;;;;;33.90;19.83;;;;;;;;;;5046172;28;20013;-65
2021/12/22 09:57:38;;;;;;;32.15;20.88;;;;;;;;;;5036779;28;20476;-64
2021/12/22 10:00:23;;;;;;;35.50;21.98;;;;;;;;;;5037264;28;20384;-66
2021/12/22 10:03:09;;;;;;;30.67;18.95;;;;;;;;;;5036020;28;20040;-62
2021/12/22 10:05:54;;;;;;;37.53;21.42;;;;;;;;;;5036786;28;20028;-62
2021/12/22 10:08:49;;;;;;;64.30;39.25;;;;;;;;;;5050288;28;20052;-61
2021/12/22 10:11:41;;;;;;;45.50;27.98;;;;;;;;;;5045211;28;20060;-62
2021/12/22 10:14:27;;;;;;;31.33;19.42;;;;;;;;;;5048253;28;20452;-60
2021/12/22 10:17:24;;;;;;;32.65;18.88;;;;;;;;;;5050502;28;20029;-61
2021/12/22 10:20:15;;;;;;;30.05;18.83;;;;;;;;;;5037420;28;20039;-68
2021/12/22 10:23:00;;;;;;;32.38;19.67;;;;;;;;;;5035417;28;20387;-63
2021/12/22 10:25:53;;;;;;;34.22;19.95;;;;;;;;;;5045076;28;20119;-64
2021/12/22 10:28:47;;;;;;;36.05;19.77;;;;;;;;;;5039117;28;20445;-65
2021/12/22 10:31:37;;;;;;;33.80;20.40;;;;;;;;;;5037778;28;20086;-66
2021/12/22 10:34:22;;;;;;;;;;;;;;;;;;5036026;28;20058;-65
2021/12/22 10:37:08;;;;;;;30.73;18.88;;;;;;;;;;5028129;28;19916;-66
2021/12/22 10:39:54;;;;;;;31.58;20.00;;;;;;;;;;5033652;28;20060;-64
2021/12/22 10:42:41;;;;;;;29.58;18.95;;;;;;;;;;5036214;28;20064;-63
2021/12/22 10:45:27;;;;;;;32.42;19.92;;;;;;;;;;5036363;28;20120;-66
2021/12/22 10:51:27;;;;;;;31.33;19.33;;;;;;;;;;5036044;28;20033;-64
2021/12/22 10:54:17;;;;;;;32.58;20.30;;;;;;;;;;5035123;28;20048;-65
2021/12/22 10:57:03;;;;;;;31.90;21.38;;;;;;;;;;5050726;28;20033;-64
2021/12/22 10:59:53;;;;;;;31.75;17.88;;;;;;;;;;5050197;28;20044;-71
2021/12/22 11:02:41;;;;;;;29.95;19.83;;;;;;;;;;5030448;28;20033;-67
2021/12/22 11:05:29;;;;;;;32.25;19.52;;;;;;;;;;5034697;28;20052;-67
2021/12/22 11:08:22;;;;;;;29.92;19.25;;;;;;;;;;5036455;28;20092;-67
2021/12/22 11:11:12;;;;;;;30.33;19.08;;;;;;;;;;5027738;28;20029;-69
2021/12/22 11:13:57;;;;;;;;;;;;;;;;;;5024147;28;20029;-68
2021/12/22 11:17:09;;;;;;;30.65;19.27;;;;;;;;;;5028859;28;20307;-62
2021/12/22 11:19:58;;;;;;;27.17;16.52;;;;;;;;;;5031215;28;20029;-61
2021/12/22 11:22:58;;;;;;;88.93;52.53;;;;;;;;;;5040852;28;20036;-61
2021/12/22 11:25:43;;;;;;;52.17;32.25;;;;;;;;;;5036952;28;20040;-61
2021/12/22 11:28:29;;;;;;;32.58;21.23;;;;;;;;;;5021759;28;20052;-63
2021/12/22 11:31:15;;;;;;;32.20;20.08;;;;;;;;;;5043264;28;20027;-61
2021/12/22 11:34:00;;;;;;;27.35;17.63;;;;;;;;;;5029019;28;20036;-65
2021/12/22 11:36:46;;;;;;;30.30;18.20;;;;;;;;;;5034405;28;20112;-69
2021/12/22 11:39:31;;;;;;;28.80;18.30;;;;;;;;;;5029854;28;20028;-66
2021/12/22 11:42:19;;;;;;;30.08;18.95;;;;;;;;;;5034761;28;20024;-68
2021/12/22 11:45:07;;;;;;;23.33;16.20;;;;;;;;;;5049526;28;20126;-66
2021/12/22 11:47:55;;;;;;;32.72;19.17;;;;;;;;;;5017660;28;20037;-67
2021/12/22 11:50:45;;;;;;;22.98;15.05;;;;;;;;;;5045486;28;20032;-64
2021/12/22 11:53:50;;;;;;;30.58;18.13;;;;;;;;;;5034661;28;20021;-66
2021/12/22 11:56:41;;;;;;;27.17;17.75;;;;;;;;;;5034144;28;20033;-68
2021/12/22 11:59:30;;;;;;;30.88;18.63;;;;;;;;;;5035113;28;20029;-66
2021/12/22 12:02:16;;;;;;;28.35;17.50;;;;;;;;;;5025128;28;20143;-65
2021/12/22 12:05:20;;;;;;;27.25;17.23;;;;;;;;;;5036223;28;20031;-64
2021/12/22 12:08:16;;;;;;;28.45;18.77;;;;;;;;;;5033885;28;20040;-65
2021/12/22 12:11:02;;;;;;;30.25;18.67;;;;;;;;;;5047704;28;20029;-65
2021/12/22 12:14:02;;;;;;;28.83;18.73;;;;;;;;;;5034647;28;20392;-68
2021/12/22 12:22:46;;;;;;;39.20;25.08;;;;;;;;;;5027802;28;20475;-68
2021/12/22 12:25:35;;;;;;;27.08;17.85;;;;;;;;;;5039875;28;20036;-67
2021/12/22 12:28:21;;;;;;;32.57;19.57;;;;;;;;;;5041718;28;20040;-65
2021/12/22 12:31:06;;;;;;;31.42;18.33;;;;;;;;;;5034741;28;20052;-65
2021/12/22 12:33:52;;;;;;;29.50;19.30;;;;;;;;;;5036807;28;20036;-66
2021/12/22 12:36:39;;;;;;;31.67;19.55;;;;;;;;;;5045816;28;20116;-67
2021/12/22 12:39:43;;;;;;;28.42;19.27;;;;;;;;;;5031865;28;20565;-64
2021/12/22 12:42:48;;;;;;;28.13;19.23;;;;;;;;;;5031281;28;20111;-66
2021/12/22 12:45:42;;;;;;;28.77;18.80;;;;;;;;;;5034443;28;20029;-63
2021/12/22 12:48:30;;;;;;;31.35;20.55;;;;;;;;;;5026802;28;20512;-63
2021/12/22 12:51:20;;;;;;;33.83;19.05;;;;;;;;;;5043731;28;20064;-63
2021/12/22 12:54:06;;;;;;;30.58;19.10;;;;;;;;;;5035661;28;20037;-65
2021/12/22 12:56:58;;;;;;;32.08;20.33;;;;;;;;;;5048168;28;20384;-62
2021/12/22 12:59:49;;;;;;;28.08;17.35;;;;;;;;;;5046477;28;20091;-63
2021/12/22 13:02:35;;;;;;;29.77;18.55;;;;;;;;;;5047779;28;20059;-63
2021/12/22 13:05:21;;;;;;;28.15;17.40;;;;;;;;;;5034176;28;20416;-67
2021/12/22 13:08:08;;;;;;;29.25;18.25;;;;;;;;;;5026668;28;20048;-69
2021/12/22 13:10:57;;;;;;;34.35;20.92;;;;;;;;;;5035283;28;20499;-66
2021/12/22 13:16:51;;;;;;;29.25;18.15;;;;;;;;;;5020092;28;20033;-68
2021/12/22 13:19:43;;;;;;;28.08;18.50;;;;;;;;;;5025009;28;20067;-68
2021/12/22 13:22:30;;;;;;;30.05;18.90;;;;;;;;;;5033817;28;20486;-63
2021/12/22 13:25:19;;;;;;;29.80;19.00;;;;;;;;;;5032033;28;20624;-62
2021/12/22 13:28:05;;;;;;;31.87;19.53;;;;;;;;;;5047604;28;20132;-64
2021/12/22 13:30:54;;;;;;;31.42;21.17;;;;;;;;;;5044554;28;20604;-64
2021/12/22 13:33:40;;;;;;;29.40;19.08;;;;;;;;;;5033854;28;20040;-64
2021/12/22 13:36:26;;;;;;;27.05;17.52;;;;;;;;;;5045929;28;20071;-64
2021/12/22 13:39:11;;;;;;;32.55;19.70;;;;;;;;;;5039939;28;20021;-63
2021/12/22 13:41:57;;;;;;;34.78;19.67;;;;;;;;;;5032674;28;20025;-69
2021/12/22 13:44:42;;;;;;;29.15;18.23;;;;;;;;;;5033568;28;20021;-60
2021/12/22 13:47:32;;;;;;;56.75;34.08;;;;;;;;;;5045970;28;20395;-62
2021/12/22 13:50:17;;;;;;;30.73;20.27;;;;;;;;;;5031205;28;20039;-63
2021/12/22 13:53:02;;;;;;;33.60;20.30;;;;;;;;;;5047555;28;20033;-62
2021/12/22 13:55:49;;;;;;;32.28;19.67;;;;;;;;;;5029566;28;20536;-63
2021/12/22 13:58:39;;;;;;;31.60;19.85;;;;;;;;;;5049209;28;20032;-62
2021/12/22 14:01:26;;;;;;;31.27;20.70;;;;;;;;;;5032087;28;20037;-64
2021/12/22 14:04:13;;;;;;;31.10;19.40;;;;;;;;;;5046868;28;20023;-66
2021/12/22 14:07:04;;;;;;;29.67;19.30;;;;;;;;;;5050163;28;20037;-60
2021/12/22 14:09:52;;;;;;;31.23;19.25;;;;;;;;;;5040734;28;20100;-60
2021/12/22 14:12:39;;;;;;;29.00;18.60;;;;;;;;;;5033653;28;20087;-62
2021/12/22 14:15:36;;;;;;;35.17;22.00;;;;;;;;;;5036245;28;20037;-60
2021/12/22 14:18:32;;;;;;;30.77;18.80;;;;;;;;;;5047214;28;20039;-65
2021/12/22 14:21:24;;;;;;;30.25;19.90;;;;;;;;;;5040344;28;20028;-68
2021/12/22 14:24:10;;;;;;;31.27;20.30;;;;;;;;;;5022653;28;20045;-66
2021/12/22 14:27:00;;;;;;;28.63;18.77;;;;;;;;;;5051747;28;20557;-65
2021/12/22 14:29:45;;;;;;;;;;;;;;;;;;5037510;28;20041;-66
2021/12/22 14:32:34;;;;;;;33.10;21.33;;;;;;;;;;5035906;28;19944;-69
2021/12/22 14:35:20;;;;;;;30.48;20.10;;;;;;;;;;5050422;28;20472;-68
2021/12/22 14:38:07;;;;;;;31.98;20.42;;;;;;;;;;5051102;28;20708;-67
2021/12/22 14:41:05;;;;;;;29.80;20.20;;;;;;;;;;5042264;28;20036;-65
2021/12/22 14:43:50;;;;;;;35.90;20.83;;;;;;;;;;5038407;28;20033;-65
2021/12/22 14:46:37;;;;;;;33.40;20.30;;;;;;;;;;5036586;28;20036;-65
2021/12/22 14:49:23;;;;;;;33.63;22.00;;;;;;;;;;5035018;28;20036;-64
2021/12/22 14:52:09;;;;;;;31.20;20.15;;;;;;;;;;5036131;28;20120;-69
2021/12/22 14:54:54;;;;;;;33.80;22.13;;;;;;;;;;5030471;28;20032;-65
2021/12/22 14:57:39;;;;;;;36.50;23.85;;;;;;;;;;5036421;28;20052;-66
2021/12/22 15:00:25;;;;;;;33.38;21.75;;;;;;;;;;5033575;28;20036;-68
2021/12/22 15:03:10;;;;;;;33.25;21.67;;;;;;;;;;5029877;28;20116;-66
2021/12/22 15:06:03;;;;;;;31.27;21.05;;;;;;;;;;5031355;28;20044;-65
2021/12/22 15:08:48;;;;;;;33.53;19.92;;;;;;;;;;5016996;28;20398;-66
2021/12/22 15:11:34;;;;;;;28.65;19.73;;;;;;;;;;5035163;28;20477;-68
2021/12/22 15:14:19;;;;;;;30.90;20.65;;;;;;;;;;5037545;28;20029;-64
2021/12/22 15:17:05;;;;;;;33.75;20.63;;;;;;;;;;5025289;28;20028;-64
2021/12/22 15:19:50;;;;;;;32.08;19.88;;;;;;;;;;5033457;28;20040;-64
2021/12/22 15:22:35;;;;;;;32.40;21.00;;;;;;;;;;5035167;28;20518;-67
2021/12/22 15:25:21;;;;;;;33.78;19.88;;;;;;;;;;5039001;28;20115;-65
2021/12/22 15:28:06;;;;;;;31.45;19.83;;;;;;;;;;5037907;28;20116;-63
2021/12/22 15:30:52;;;;;;;31.75;19.85;;;;;;;;;;5039414;28;20032;-70
2021/12/22 15:33:37;;;;;;;34.20;20.90;;;;;;;;;;5052173;28;20056;-62
2021/12/22 15:36:22;;;;;;;37.25;22.00;;;;;;;;;;5035183;28;20025;-63
2021/12/22 15:39:07;;;;;;;35.08;21.98;;;;;;;;;;5035511;28;20119;-61
2021/12/22 15:41:53;;;;;;;32.25;20.67;;;;;;;;;;5035446;28;20025;-61
2021/12/22 15:44:38;;;;;;;32.80;20.25;;;;;;;;;;5035308;28;20412;-59
2021/12/22 15:47:23;;;;;;;32.60;21.15;;;;;;;;;;5031212;28;20075;-60
2021/12/22 15:50:10;;;;;;;33.45;21.40;;;;;;;;;;5032921;28;20396;-65
2021/12/22 15:52:55;;;;;;;33.38;20.88;;;;;;;;;;5049650;28;20537;-63
2021/12/22 15:55:41;;;;;;;33.67;21.05;;;;;;;;;;5047267;28;20028;-62
2021/12/22 15:58:27;;;;;;;35.95;21.83;;;;;;;;;;5035136;28;20071;-63
2021/12/22 16:01:12;;;;;;;31.55;20.63;;;;;;;;;;5045928;28;20037;-62
2021/12/22 16:04:00;;;;;;;31.88;18.27;;;;;;;;;;5039272;28;20148;-63
2021/12/22 16:06:45;;;;;;;31.98;18.65;;;;;;;;;;5022431;28;20476;-62
2021/12/22 16:09:33;;;;;;;32.85;19.58;;;;;;;;;;5031444;28;20396;-66
2021/12/22 16:12:18;;;;;;;33.20;20.65;;;;;;;;;;5032851;28;20031;-60
2021/12/22 16:15:04;;;;;;;32.03;20.55;;;;;;;;;;5030932;28;20592;-62
2021/12/22 16:17:50;;;;;;;30.70;21.13;;;;;;;;;;5033666;28;20021;-62
2021/12/22 16:20:36;;;;;;;31.27;19.90;;;;;;;;;;5048520;28;20021;-62
2021/12/22 16:23:29;;;;;;;36.65;19.92;;;;;;;;;;5033891;28;20106;-63
2021/12/22 16:26:14;;;;;;;32.80;20.05;;;;;;;;;;5037304;28;20496;-63
2021/12/22 16:28:59;;;;;;;35.05;23.63;;;;;;;;;;5029207;28;20068;-63
2021/12/22 16:31:45;;;;;;;34.63;22.27;;;;;;;;;;5028257;28;20033;-56
2021/12/22 16:34:30;;;;;;;32.83;22.02;;;;;;;;;;5035260;28;20491;-56
2021/12/22 16:37:15;;;;;;;35.88;22.25;;;;;;;;;;5035611;28;20032;-57
2021/12/22 16:40:00;;;;;;;38.00;22.80;;;;;;;;;;5034514;28;20663;-57
2021/12/22 16:42:46;;;;;;;36.30;21.55;;;;;;;;;;5022829;28;20035;-57
2021/12/22 16:45:31;;;;;;;37.33;23.30;;;;;;;;;;5041818;28;20064;-60